sensor_id;sensor_type;location;lat;lon;timestamp;temperature;humidity
18779;DHT22;9518;51.720;14.384;2022-12-11T00:01:23;-1.80;99.90
18779;DHT22;9518;51.720;14.384;2022-12-11T00:03:50;-1.80;99.90
18779;DHT22;9518;51.720;14.384;2022-12-11T00:06:19;-1.80;99.90
18779;DHT22;9518;51.720;14.384;2022-12-11T00:08:50;-1.90;99.90
18779;DHT22;9518;51.720;14.384;2022-12-11T00:11:18;-1.90;99.90
18779;DHT22;9518;51.720;14.384;2022-12-11T00:13:46;-2.00;99.90
18779;DHT22;9518;51.720;14.384;2022-12-11T00:16:14;-2.00;99.90
18779;DHT22;9518;51.720;14.384;2022-12-11T00:18:41;-1.90;99.90
18779;DHT22;9518;51.720;14.384;2022-12-11T00:21:12;-1.90;99.90
18779;DHT22;9518;51.720;14.384;2022-12-11T00:23:40;-1.90;99.90
18779;DHT22;9518;51.720;14.384;2022-12-11T00:26:12;-1.90;99.90
18779;DHT22;9518;51.720;14.384;2022-12-11T00:28:42;-1.80;99.90
18779;DHT22;9518;51.720;14.384;2022-12-11T00:31:12;-1.90;99.90
18779;DHT22;9518;51.720;14.384;2022-12-11T00:33:40;-1.80;99.90
18779;DHT22;9518;51.720;14.384;2022-12-11T00:36:11;-1.80;99.90
18779;DHT22;9518;51.720;14.384;2022-12-11T00:38:38;-1.80;99.90
18779;DHT22;9518;51.720;14.384;2022-12-11T00:41:05;-1.80;99.90
18779;DHT22;9518;51.720;14.384;2022-12-11T00:43:32;-1.80;99.90
18779;DHT22;9518;51.720;14.384;2022-12-11T00:46:02;-1.80;99.90
18779;DHT22;9518;51.720;14.384;2022-12-11T00:48:29;-1.90;99.90
18779;DHT22;9518;51.720;14.384;2022-12-11T00:50:56;-1.90;99.90
18779;DHT22;9518;51.720;14.384;2022-12-11T00:53:23;-1.80;99.90
18779;DHT22;9518;51.720;14.384;2022-12-11T00:55:50;-1.80;99.90
18779;DHT22;9518;51.720;14.384;2022-12-11T00:58:17;-1.90;99.90
18779;DHT22;9518;51.720;14.384;2022-12-11T01:00:44;-1.90;99.90
18779;DHT22;9518;51.720;14.384;2022-12-11T01:03:14;-2.00;99.90
18779;DHT22;9518;51.720;14.384;2022-12-11T01:05:50;-2.00;99.90
18779;DHT22;9518;51.720;14.384;2022-12-11T01:08:17;-2.00;99.90
18779;DHT22;9518;51.720;14.384;2022-12-11T01:10:44;-2.00;99.90
18779;DHT22;9518;51.720;14.384;2022-12-11T01:13:11;-2.00;99.90
18779;DHT22;9518;51.720;14.384;2022-12-11T01:15:40;-2.00;99.90
18779;DHT22;9518;51.720;14.384;2022-12-11T01:18:07;-2.00;99.90
18779;DHT22;9518;51.720;14.384;2022-12-11T01:20:37;-2.00;99.90
18779;DHT22;9518;51.720;14.384;2022-12-11T01:23:05;-2.00;99.90
18779;DHT22;9518;51.720;14.384;2022-12-11T01:25:34;-1.90;99.90
18779;DHT22;9518;51.720;14.384;2022-12-11T01:28:03;-1.90;99.90
18779;DHT22;9518;51.720;14.384;2022-12-11T01:30:30;-1.90;99.90
18779;DHT22;9518;51.720;14.384;2022-12-11T01:32:57;-1.90;99.90
18779;DHT22;9518;51.720;14.384;2022-12-11T01:35:24;-1.90;99.90
18779;DHT22;9518;51.720;14.384;2022-12-11T01:37:52;-1.90;99.90
18779;DHT22;9518;51.720;14.384;2022-12-11T01:40:20;-1.90;99.90
18779;DHT22;9518;51.720;14.384;2022-12-11T01:42:47;-1.90;99.90
18779;DHT22;9518;51.720;14.384;2022-12-11T01:45:37;-2.00;99.90
18779;DHT22;9518;51.720;14.384;2022-12-11T01:48:08;-2.00;99.90
18779;DHT22;9518;51.720;14.384;2022-12-11T01:50:41;-2.00;99.90
18779;DHT22;9518;51.720;14.384;2022-12-11T01:53:14;-2.00;99.90
18779;DHT22;9518;51.720;14.384;2022-12-11T01:55:42;-2.00;99.90
18779;DHT22;9518;51.720;14.384;2022-12-11T01:58:11;-2.00;99.90
18779;DHT22;9518;51.720;14.384;2022-12-11T02:00:39;-2.00;99.90
18779;DHT22;9518;51.720;14.384;2022-12-11T02:03:06;-2.10;99.90
18779;DHT22;9518;51.720;14.384;2022-12-11T02:05:33;-2.10;99.90
18779;DHT22;9518;51.720;14.384;2022-12-11T02:08:02;-2.10;99.90
18779;DHT22;9518;51.720;14.384;2022-12-11T02:10:46;-2.10;99.90
18779;DHT22;9518;51.720;14.384;2022-12-11T02:13:18;-2.00;99.90
18779;DHT22;9518;51.720;14.384;2022-12-11T02:15:50;-2.00;99.90
18779;DHT22;9518;51.720;14.384;2022-12-11T02:18:26;-2.00;99.90
18779;DHT22;9518;51.720;14.384;2022-12-11T02:21:04;-2.00;99.90
18779;DHT22;9518;51.720;14.384;2022-12-11T02:23:43;-2.00;99.90
18779;DHT22;9518;51.720;14.384;2022-12-11T02:26:33;-1.90;99.90
18779;DHT22;9518;51.720;14.384;2022-12-11T02:29:07;-1.90;99.90
18779;DHT22;9518;51.720;14.384;2022-12-11T02:31:38;-1.90;99.90
18779;DHT22;9518;51.720;14.384;2022-12-11T02:34:17;-1.90;99.90
18779;DHT22;9518;51.720;14.384;2022-12-11T02:36:48;-1.90;99.90
18779;DHT22;9518;51.720;14.384;2022-12-11T02:39:18;-2.00;99.90
18779;DHT22;9518;51.720;14.384;2022-12-11T02:41:48;-2.00;99.90
18779;DHT22;9518;51.720;14.384;2022-12-11T02:44:20;-2.00;99.90
18779;DHT22;9518;51.720;14.384;2022-12-11T02:46:48;-2.10;99.90
18779;DHT22;9518;51.720;14.384;2022-12-11T02:49:17;-2.10;99.90
18779;DHT22;9518;51.720;14.384;2022-12-11T02:51:46;-2.10;99.90
18779;DHT22;9518;51.720;14.384;2022-12-11T02:54:17;-2.10;99.90
18779;DHT22;9518;51.720;14.384;2022-12-11T02:56:49;-2.10;99.90
18779;DHT22;9518;51.720;14.384;2022-12-11T02:59:20;-2.10;99.90
18779;DHT22;9518;51.720;14.384;2022-12-11T03:01:49;-2.10;99.90
18779;DHT22;9518;51.720;14.384;2022-12-11T03:04:16;-2.10;99.90
18779;DHT22;9518;51.720;14.384;2022-12-11T03:06:47;-2.10;99.90
18779;DHT22;9518;51.720;14.384;2022-12-11T03:09:16;-2.00;99.90
18779;DHT22;9518;51.720;14.384;2022-12-11T03:11:43;-2.10;99.90
18779;DHT22;9518;51.720;14.384;2022-12-11T03:14:10;-2.10;99.90
18779;DHT22;9518;51.720;14.384;2022-12-11T03:16:44;-2.00;99.90
18779;DHT22;9518;51.720;14.384;2022-12-11T03:19:18;-2.10;99.90
18779;DHT22;9518;51.720;14.384;2022-12-11T03:21:56;-2.10;99.90
18779;DHT22;9518;51.720;14.384;2022-12-11T03:24:29;-2.10;99.90
18779;DHT22;9518;51.720;14.384;2022-12-11T03:26:58;-2.10;99.90
18779;DHT22;9518;51.720;14.384;2022-12-11T03:29:31;-2.10;99.90
18779;DHT22;9518;51.720;14.384;2022-12-11T03:32:05;-2.10;99.90
18779;DHT22;9518;51.720;14.384;2022-12-11T03:34:40;-2.10;99.90
18779;DHT22;9518;51.720;14.384;2022-12-11T03:37:10;-2.10;99.90
18779;DHT22;9518;51.720;14.384;2022-12-11T03:39:39;-2.00;99.90
18779;DHT22;9518;51.720;14.384;2022-12-11T03:42:10;-2.00;99.90
18779;DHT22;9518;51.720;14.384;2022-12-11T03:44:38;-2.00;99.90
18779;DHT22;9518;51.720;14.384;2022-12-11T03:47:08;-2.00;99.90
18779;DHT22;9518;51.720;14.384;2022-12-11T03:49:39;-2.00;99.90
18779;DHT22;9518;51.720;14.384;2022-12-11T03:52:09;-2.00;99.90
18779;DHT22;9518;51.720;14.384;2022-12-11T03:54:37;-2.00;99.90
18779;DHT22;9518;51.720;14.384;2022-12-11T03:57:07;-2.00;99.90
18779;DHT22;9518;51.720;14.384;2022-12-11T03:59:35;-2.00;99.90
18779;DHT22;9518;51.720;14.384;2022-12-11T04:02:02;-2.00;99.90
18779;DHT22;9518;51.720;14.384;2022-12-11T04:04:37;-2.10;99.90
18779;DHT22;9518;51.720;14.384;2022-12-11T04:07:05;-2.10;99.90
18779;DHT22;9518;51.720;14.384;2022-12-11T04:09:32;-2.10;99.90
18779;DHT22;9518;51.720;14.384;2022-12-11T04:12:00;-2.10;99.90
18779;DHT22;9518;51.720;14.384;2022-12-11T04:14:27;-2.10;99.90
18779;DHT22;9518;51.720;14.384;2022-12-11T04:17:11;-2.10;99.90
18779;DHT22;9518;51.720;14.384;2022-12-11T04:19:59;-2.20;99.90
18779;DHT22;9518;51.720;14.384;2022-12-11T04:22:44;-2.10;99.90
18779;DHT22;9518;51.720;14.384;2022-12-11T04:25:28;-2.10;99.90
18779;DHT22;9518;51.720;14.384;2022-12-11T04:27:57;-2.10;99.90
18779;DHT22;9518;51.720;14.384;2022-12-11T04:30:24;-2.00;99.90
18779;DHT22;9518;51.720;14.384;2022-12-11T04:32:52;-2.10;99.90
18779;DHT22;9518;51.720;14.384;2022-12-11T04:35:22;-2.10;99.90
18779;DHT22;9518;51.720;14.384;2022-12-11T04:37:49;-2.20;99.90
18779;DHT22;9518;51.720;14.384;2022-12-11T04:40:18;-2.20;99.90
18779;DHT22;9518;51.720;14.384;2022-12-11T04:42:46;-2.20;99.90
18779;DHT22;9518;51.720;14.384;2022-12-11T04:45:13;-2.20;99.90
18779;DHT22;9518;51.720;14.384;2022-12-11T04:47:40;-2.20;99.90
18779;DHT22;9518;51.720;14.384;2022-12-11T04:50:10;-2.20;99.90
18779;DHT22;9518;51.720;14.384;2022-12-11T04:52:39;-2.20;99.90
18779;DHT22;9518;51.720;14.384;2022-12-11T04:55:07;-2.10;99.90
18779;DHT22;9518;51.720;14.384;2022-12-11T04:57:34;-2.20;99.90
18779;DHT22;9518;51.720;14.384;2022-12-11T05:00:02;-2.20;99.90
18779;DHT22;9518;51.720;14.384;2022-12-11T05:02:32;-2.10;99.90
18779;DHT22;9518;51.720;14.384;2022-12-11T05:04:59;-2.10;99.90
18779;DHT22;9518;51.720;14.384;2022-12-11T05:07:27;-2.20;99.90
18779;DHT22;9518;51.720;14.384;2022-12-11T05:09:56;-2.20;99.90
18779;DHT22;9518;51.720;14.384;2022-12-11T05:12:23;-2.20;99.90
18779;DHT22;9518;51.720;14.384;2022-12-11T05:14:51;-2.30;99.90
18779;DHT22;9518;51.720;14.384;2022-12-11T05:17:18;-2.30;99.90
18779;DHT22;9518;51.720;14.384;2022-12-11T05:19:46;-2.30;99.90
18779;DHT22;9518;51.720;14.384;2022-12-11T05:22:14;-2.20;99.90
18779;DHT22;9518;51.720;14.384;2022-12-11T05:24:42;-2.30;99.90
18779;DHT22;9518;51.720;14.384;2022-12-11T05:27:11;-2.30;99.90
18779;DHT22;9518;51.720;14.384;2022-12-11T05:29:38;-2.40;99.90
18779;DHT22;9518;51.720;14.384;2022-12-11T05:32:06;-2.40;99.90
18779;DHT22;9518;51.720;14.384;2022-12-11T05:34:34;-2.40;99.90
18779;DHT22;9518;51.720;14.384;2022-12-11T05:37:01;-2.40;99.90
18779;DHT22;9518;51.720;14.384;2022-12-11T05:39:28;-2.40;99.90
18779;DHT22;9518;51.720;14.384;2022-12-11T05:41:58;-2.40;99.90
18779;DHT22;9518;51.720;14.384;2022-12-11T05:44:26;-2.40;99.90
18779;DHT22;9518;51.720;14.384;2022-12-11T05:46:56;-2.40;99.90
18779;DHT22;9518;51.720;14.384;2022-12-11T05:49:23;-2.40;99.90
18779;DHT22;9518;51.720;14.384;2022-12-11T05:51:50;-2.40;99.90
18779;DHT22;9518;51.720;14.384;2022-12-11T05:54:18;-2.50;99.90
18779;DHT22;9518;51.720;14.384;2022-12-11T05:56:45;-2.40;99.90
18779;DHT22;9518;51.720;14.384;2022-12-11T05:59:12;-2.50;99.90
18779;DHT22;9518;51.720;14.384;2022-12-11T06:01:42;-2.50;99.90
18779;DHT22;9518;51.720;14.384;2022-12-11T06:04:10;-2.50;99.90
18779;DHT22;9518;51.720;14.384;2022-12-11T06:06:38;-2.50;99.90
18779;DHT22;9518;51.720;14.384;2022-12-11T06:09:06;-2.50;99.90
18779;DHT22;9518;51.720;14.384;2022-12-11T06:11:34;-2.50;99.90
18779;DHT22;9518;51.720;14.384;2022-12-11T06:14:03;-2.50;99.90
18779;DHT22;9518;51.720;14.384;2022-12-11T06:16:30;-2.50;99.90
18779;DHT22;9518;51.720;14.384;2022-12-11T06:18:59;-2.60;99.90
18779;DHT22;9518;51.720;14.384;2022-12-11T06:21:28;-2.60;99.90
18779;DHT22;9518;51.720;14.384;2022-12-11T06:23:57;-2.50;99.90
18779;DHT22;9518;51.720;14.384;2022-12-11T06:26:25;-2.50;99.90
18779;DHT22;9518;51.720;14.384;2022-12-11T06:28:52;-2.50;99.90
18779;DHT22;9518;51.720;14.384;2022-12-11T06:31:20;-2.50;99.90
18779;DHT22;9518;51.720;14.384;2022-12-11T06:33:47;-2.50;99.90
18779;DHT22;9518;51.720;14.384;2022-12-11T06:36:17;-2.50;99.90
18779;DHT22;9518;51.720;14.384;2022-12-11T06:38:45;-2.60;99.90
18779;DHT22;9518;51.720;14.384;2022-12-11T06:41:12;-2.50;99.90
18779;DHT22;9518;51.720;14.384;2022-12-11T06:43:41;-2.60;99.90
18779;DHT22;9518;51.720;14.384;2022-12-11T06:46:11;-2.50;99.90
18779;DHT22;9518;51.720;14.384;2022-12-11T06:48:38;-2.40;99.90
18779;DHT22;9518;51.720;14.384;2022-12-11T06:51:07;-2.50;99.90
18779;DHT22;9518;51.720;14.384;2022-12-11T06:53:37;-2.50;99.90
18779;DHT22;9518;51.720;14.384;2022-12-11T06:56:06;-2.50;99.90
18779;DHT22;9518;51.720;14.384;2022-12-11T06:58:34;-2.50;99.90
18779;DHT22;9518;51.720;14.384;2022-12-11T07:01:02;-2.40;99.90
18779;DHT22;9518;51.720;14.384;2022-12-11T07:03:29;-2.40;99.90
18779;DHT22;9518;51.720;14.384;2022-12-11T07:05:59;-2.40;99.90
18779;DHT22;9518;51.720;14.384;2022-12-11T07:08:27;-2.40;99.90
18779;DHT22;9518;51.720;14.384;2022-12-11T07:11:02;-2.40;99.90
18779;DHT22;9518;51.720;14.384;2022-12-11T07:13:29;-2.40;99.90
18779;DHT22;9518;51.720;14.384;2022-12-11T07:15:57;-2.40;99.90
18779;DHT22;9518;51.720;14.384;2022-12-11T07:18:25;-2.40;99.90
18779;DHT22;9518;51.720;14.384;2022-12-11T07:20:52;-2.40;99.90
18779;DHT22;9518;51.720;14.384;2022-12-11T07:23:19;-2.30;99.90
18779;DHT22;9518;51.720;14.384;2022-12-11T07:25:46;-2.30;99.90
18779;DHT22;9518;51.720;14.384;2022-12-11T07:28:15;-2.30;99.90
18779;DHT22;9518;51.720;14.384;2022-12-11T07:30:42;-2.20;99.90
18779;DHT22;9518;51.720;14.384;2022-12-11T07:33:11;-2.30;99.90
18779;DHT22;9518;51.720;14.384;2022-12-11T07:35:38;-2.30;99.90
18779;DHT22;9518;51.720;14.384;2022-12-11T07:38:05;-2.30;99.90
18779;DHT22;9518;51.720;14.384;2022-12-11T07:40:35;-2.10;99.90
18779;DHT22;9518;51.720;14.384;2022-12-11T07:43:02;-2.10;99.90
18779;DHT22;9518;51.720;14.384;2022-12-11T07:45:31;-2.10;99.90
18779;DHT22;9518;51.720;14.384;2022-12-11T07:47:58;-2.10;99.90
18779;DHT22;9518;51.720;14.384;2022-12-11T07:50:25;-2.10;99.90
18779;DHT22;9518;51.720;14.384;2022-12-11T07:52:52;-2.10;99.90
18779;DHT22;9518;51.720;14.384;2022-12-11T07:55:22;-2.20;99.90
18779;DHT22;9518;51.720;14.384;2022-12-11T07:57:49;-2.10;99.90
18779;DHT22;9518;51.720;14.384;2022-12-11T08:00:16;-2.20;99.90
18779;DHT22;9518;51.720;14.384;2022-12-11T08:02:45;-2.10;99.90
18779;DHT22;9518;51.720;14.384;2022-12-11T08:05:12;-2.00;99.90
18779;DHT22;9518;51.720;14.384;2022-12-11T08:07:39;-2.00;99.90
18779;DHT22;9518;51.720;14.384;2022-12-11T08:10:09;-2.00;99.90
18779;DHT22;9518;51.720;14.384;2022-12-11T08:12:38;-2.00;99.90
18779;DHT22;9518;51.720;14.384;2022-12-11T08:15:08;-2.10;99.90
18779;DHT22;9518;51.720;14.384;2022-12-11T08:17:37;-2.00;99.90
18779;DHT22;9518;51.720;14.384;2022-12-11T08:20:06;-2.10;99.90
18779;DHT22;9518;51.720;14.384;2022-12-11T08:22:34;-2.10;99.90
18779;DHT22;9518;51.720;14.384;2022-12-11T08:25:01;-2.00;99.90
18779;DHT22;9518;51.720;14.384;2022-12-11T08:27:28;-2.00;99.90
18779;DHT22;9518;51.720;14.384;2022-12-11T08:29:55;-2.00;99.90
18779;DHT22;9518;51.720;14.384;2022-12-11T08:32:23;-2.00;99.90
18779;DHT22;9518;51.720;14.384;2022-12-11T08:34:50;-2.00;99.90
18779;DHT22;9518;51.720;14.384;2022-12-11T08:37:18;-2.10;99.90
18779;DHT22;9518;51.720;14.384;2022-12-11T08:39:45;-2.00;99.90
18779;DHT22;9518;51.720;14.384;2022-12-11T08:42:13;-2.00;99.90
18779;DHT22;9518;51.720;14.384;2022-12-11T08:44:39;-1.90;99.90
18779;DHT22;9518;51.720;14.384;2022-12-11T08:47:08;-2.00;99.90
18779;DHT22;9518;51.720;14.384;2022-12-11T08:49:35;-1.90;99.90
18779;DHT22;9518;51.720;14.384;2022-12-11T08:52:03;-1.90;99.90
18779;DHT22;9518;51.720;14.384;2022-12-11T08:54:32;-2.00;99.90
18779;DHT22;9518;51.720;14.384;2022-12-11T08:56:59;-2.00;99.90
18779;DHT22;9518;51.720;14.384;2022-12-11T08:59:26;-2.00;99.90
18779;DHT22;9518;51.720;14.384;2022-12-11T09:01:53;-1.90;99.90
18779;DHT22;9518;51.720;14.384;2022-12-11T09:04:21;-1.90;99.90
18779;DHT22;9518;51.720;14.384;2022-12-11T09:06:48;-1.90;99.90
18779;DHT22;9518;51.720;14.384;2022-12-11T09:09:18;-1.80;99.90
18779;DHT22;9518;51.720;14.384;2022-12-11T09:11:47;-1.70;99.90
18779;DHT22;9518;51.720;14.384;2022-12-11T09:14:14;-1.80;99.90
18779;DHT22;9518;51.720;14.384;2022-12-11T09:16:41;-1.70;99.90
18779;DHT22;9518;51.720;14.384;2022-12-11T09:19:11;-1.80;99.90
18779;DHT22;9518;51.720;14.384;2022-12-11T09:21:40;-1.80;99.90
18779;DHT22;9518;51.720;14.384;2022-12-11T09:24:08;-1.80;99.90
18779;DHT22;9518;51.720;14.384;2022-12-11T09:26:37;-1.80;99.90
18779;DHT22;9518;51.720;14.384;2022-12-11T09:29:07;-1.80;99.90
18779;DHT22;9518;51.720;14.384;2022-12-11T09:31:35;-1.80;99.90
18779;DHT22;9518;51.720;14.384;2022-12-11T09:34:07;-1.70;99.90
18779;DHT22;9518;51.720;14.384;2022-12-11T09:36:34;-1.80;99.90
18779;DHT22;9518;51.720;14.384;2022-12-11T09:39:05;-1.80;99.90
18779;DHT22;9518;51.720;14.384;2022-12-11T09:41:36;-1.90;99.90
18779;DHT22;9518;51.720;14.384;2022-12-11T09:44:20;-1.90;99.90
18779;DHT22;9518;51.720;14.384;2022-12-11T09:46:53;-1.90;99.90
18779;DHT22;9518;51.720;14.384;2022-12-11T09:49:27;-1.90;99.90
18779;DHT22;9518;51.720;14.384;2022-12-11T09:52:04;-1.90;99.90
18779;DHT22;9518;51.720;14.384;2022-12-11T09:54:32;-1.90;99.90
18779;DHT22;9518;51.720;14.384;2022-12-11T09:57:10;-1.90;99.90
18779;DHT22;9518;51.720;14.384;2022-12-11T09:59:52;-1.80;99.90
18779;DHT22;9518;51.720;14.384;2022-12-11T10:02:33;-1.90;99.90
18779;DHT22;9518;51.720;14.384;2022-12-11T10:05:12;-1.90;99.90
18779;DHT22;9518;51.720;14.384;2022-12-11T10:07:47;-2.00;99.90
18779;DHT22;9518;51.720;14.384;2022-12-11T10:10:22;-2.00;99.90
18779;DHT22;9518;51.720;14.384;2022-12-11T10:13:04;-2.00;99.90
18779;DHT22;9518;51.720;14.384;2022-12-11T10:15:42;-2.00;99.90
18779;DHT22;9518;51.720;14.384;2022-12-11T10:18:17;-1.90;99.90
18779;DHT22;9518;51.720;14.384;2022-12-11T10:20:46;-2.00;99.90
18779;DHT22;9518;51.720;14.384;2022-12-11T10:23:18;-2.00;99.90
18779;DHT22;9518;51.720;14.384;2022-12-11T10:25:50;-1.90;99.90
18779;DHT22;9518;51.720;14.384;2022-12-11T10:28:21;-1.90;99.90
18779;DHT22;9518;51.720;14.384;2022-12-11T10:31:09;-1.80;99.90
18779;DHT22;9518;51.720;14.384;2022-12-11T10:33:43;-1.80;99.90
18779;DHT22;9518;51.720;14.384;2022-12-11T10:36:19;-1.80;99.90
18779;DHT22;9518;51.720;14.384;2022-12-11T10:38:46;-1.70;99.90
18779;DHT22;9518;51.720;14.384;2022-12-11T10:41:17;-1.80;99.90
18779;DHT22;9518;51.720;14.384;2022-12-11T10:43:48;-1.70;99.90
18779;DHT22;9518;51.720;14.384;2022-12-11T10:46:18;-1.80;99.90
18779;DHT22;9518;51.720;14.384;2022-12-11T10:48:46;-1.70;99.90
18779;DHT22;9518;51.720;14.384;2022-12-11T10:51:13;-1.60;99.90
18779;DHT22;9518;51.720;14.384;2022-12-11T10:53:41;-1.70;99.90
18779;DHT22;9518;51.720;14.384;2022-12-11T10:56:10;-1.50;99.90
18779;DHT22;9518;51.720;14.384;2022-12-11T10:58:46;-1.50;99.90
18779;DHT22;9518;51.720;14.384;2022-12-11T11:01:20;-1.60;99.90
18779;DHT22;9518;51.720;14.384;2022-12-11T11:03:54;-1.60;99.90
18779;DHT22;9518;51.720;14.384;2022-12-11T11:06:26;-1.60;99.90
18779;DHT22;9518;51.720;14.384;2022-12-11T11:08:55;-1.60;99.90
18779;DHT22;9518;51.720;14.384;2022-12-11T11:11:26;-1.60;99.90
18779;DHT22;9518;51.720;14.384;2022-12-11T11:14:12;-1.60;99.90
18779;DHT22;9518;51.720;14.384;2022-12-11T11:16:43;-1.50;99.90
18779;DHT22;9518;51.720;14.384;2022-12-11T11:19:18;-1.50;99.90
18779;DHT22;9518;51.720;14.384;2022-12-11T11:24:35;-1.40;99.90
18779;DHT22;9518;51.720;14.384;2022-12-11T11:27:11;-1.40;99.90
18779;DHT22;9518;51.720;14.384;2022-12-11T11:29:40;-1.30;99.90
18779;DHT22;9518;51.720;14.384;2022-12-11T11:32:16;-1.40;99.90
18779;DHT22;9518;51.720;14.384;2022-12-11T11:34:44;-1.40;99.90
18779;DHT22;9518;51.720;14.384;2022-12-11T11:37:23;-1.40;99.90
18779;DHT22;9518;51.720;14.384;2022-12-11T11:39:54;-1.50;99.90
18779;DHT22;9518;51.720;14.384;2022-12-11T11:42:32;-1.60;99.90
18779;DHT22;9518;51.720;14.384;2022-12-11T11:45:04;-1.60;99.90
18779;DHT22;9518;51.720;14.384;2022-12-11T11:47:39;-1.60;99.90
18779;DHT22;9518;51.720;14.384;2022-12-11T11:50:15;-1.40;99.90
18779;DHT22;9518;51.720;14.384;2022-12-11T11:52:47;-1.40;99.90
18779;DHT22;9518;51.720;14.384;2022-12-11T11:55:18;-1.40;99.90
18779;DHT22;9518;51.720;14.384;2022-12-11T11:57:51;-1.40;99.90
18779;DHT22;9518;51.720;14.384;2022-12-11T12:00:21;-1.50;99.90
18779;DHT22;9518;51.720;14.384;2022-12-11T12:02:53;-1.60;99.90
18779;DHT22;9518;51.720;14.384;2022-12-11T12:05:26;-1.70;99.90
18779;DHT22;9518;51.720;14.384;2022-12-11T12:08:06;-1.70;99.90
18779;DHT22;9518;51.720;14.384;2022-12-11T12:10:43;-1.60;99.90
18779;DHT22;9518;51.720;14.384;2022-12-11T12:13:16;-1.70;99.90
18779;DHT22;9518;51.720;14.384;2022-12-11T12:15:54;-1.70;99.90
18779;DHT22;9518;51.720;14.384;2022-12-11T12:18:30;-1.70;99.90
18779;DHT22;9518;51.720;14.384;2022-12-11T12:21:03;-1.60;99.90
18779;DHT22;9518;51.720;14.384;2022-12-11T12:23:46;-1.60;99.90
18779;DHT22;9518;51.720;14.384;2022-12-11T12:26:22;-1.50;99.90
18779;DHT22;9518;51.720;14.384;2022-12-11T12:29:00;-1.60;99.90
18779;DHT22;9518;51.720;14.384;2022-12-11T12:31:48;-1.60;99.90
18779;DHT22;9518;51.720;14.384;2022-12-11T12:34:27;-1.70;99.90
18779;DHT22;9518;51.720;14.384;2022-12-11T12:37:01;-1.70;99.90
18779;DHT22;9518;51.720;14.384;2022-12-11T12:39:39;-1.70;99.90
18779;DHT22;9518;51.720;14.384;2022-12-11T12:42:13;-1.70;99.90
18779;DHT22;9518;51.720;14.384;2022-12-11T12:44:49;-1.60;99.90
18779;DHT22;9518;51.720;14.384;2022-12-11T12:47:21;-1.60;99.90
18779;DHT22;9518;51.720;14.384;2022-12-11T12:49:51;-1.70;99.90
18779;DHT22;9518;51.720;14.384;2022-12-11T12:52:37;-1.70;99.90
18779;DHT22;9518;51.720;14.384;2022-12-11T12:55:17;-1.80;99.90
18779;DHT22;9518;51.720;14.384;2022-12-11T12:57:49;-1.80;99.90
18779;DHT22;9518;51.720;14.384;2022-12-11T13:00:31;-1.90;99.90
18779;DHT22;9518;51.720;14.384;2022-12-11T13:03:00;-1.90;99.90
18779;DHT22;9518;51.720;14.384;2022-12-11T13:05:32;-1.90;99.90
18779;DHT22;9518;51.720;14.384;2022-12-11T13:08:01;-1.90;99.90
18779;DHT22;9518;51.720;14.384;2022-12-11T13:10:30;-2.00;99.90
18779;DHT22;9518;51.720;14.384;2022-12-11T13:12:59;-2.00;99.90
18779;DHT22;9518;51.720;14.384;2022-12-11T13:15:33;-2.00;99.90
18779;DHT22;9518;51.720;14.384;2022-12-11T13:18:02;-2.00;99.90
18779;DHT22;9518;51.720;14.384;2022-12-11T13:20:32;-1.90;99.90
18779;DHT22;9518;51.720;14.384;2022-12-11T13:23:18;-1.90;99.90
18779;DHT22;9518;51.720;14.384;2022-12-11T13:25:51;-2.00;99.90
18779;DHT22;9518;51.720;14.384;2022-12-11T13:28:25;-2.10;99.90
18779;DHT22;9518;51.720;14.384;2022-12-11T13:31:05;-2.10;99.90
18779;DHT22;9518;51.720;14.384;2022-12-11T13:33:40;-2.10;99.90
18779;DHT22;9518;51.720;14.384;2022-12-11T13:36:24;-2.10;99.90
18779;DHT22;9518;51.720;14.384;2022-12-11T13:38:54;-2.10;99.90
18779;DHT22;9518;51.720;14.384;2022-12-11T13:41:23;-2.10;99.90
18779;DHT22;9518;51.720;14.384;2022-12-11T13:43:51;-2.10;99.90
18779;DHT22;9518;51.720;14.384;2022-12-11T13:46:22;-2.00;99.90
18779;DHT22;9518;51.720;14.384;2022-12-11T13:48:52;-2.00;99.90
18779;DHT22;9518;51.720;14.384;2022-12-11T13:51:26;-2.10;99.90
18779;DHT22;9518;51.720;14.384;2022-12-11T13:54:05;-2.10;99.90
18779;DHT22;9518;51.720;14.384;2022-12-11T13:56:32;-2.20;99.90
18779;DHT22;9518;51.720;14.384;2022-12-11T13:59:00;-2.20;99.90
18779;DHT22;9518;51.720;14.384;2022-12-11T14:01:30;-2.10;99.90
18779;DHT22;9518;51.720;14.384;2022-12-11T14:04:00;-2.20;99.90
18779;DHT22;9518;51.720;14.384;2022-12-11T14:06:29;-2.20;99.90
18779;DHT22;9518;51.720;14.384;2022-12-11T14:08:59;-2.20;99.90
18779;DHT22;9518;51.720;14.384;2022-12-11T14:11:30;-2.20;99.90
18779;DHT22;9518;51.720;14.384;2022-12-11T14:14:01;-2.20;99.90
18779;DHT22;9518;51.720;14.384;2022-12-11T14:16:30;-2.20;99.90
18779;DHT22;9518;51.720;14.384;2022-12-11T14:19:02;-2.20;99.90
18779;DHT22;9518;51.720;14.384;2022-12-11T14:21:32;-2.20;99.90
18779;DHT22;9518;51.720;14.384;2022-12-11T14:24:00;-2.10;99.90
18779;DHT22;9518;51.720;14.384;2022-12-11T14:26:29;-2.10;99.90
18779;DHT22;9518;51.720;14.384;2022-12-11T14:28:57;-2.20;99.90
18779;DHT22;9518;51.720;14.384;2022-12-11T14:31:28;-2.20;99.90
18779;DHT22;9518;51.720;14.384;2022-12-11T14:34:01;-2.20;99.90
18779;DHT22;9518;51.720;14.384;2022-12-11T14:36:30;-2.20;99.90
18779;DHT22;9518;51.720;14.384;2022-12-11T14:39:02;-2.20;99.90
18779;DHT22;9518;51.720;14.384;2022-12-11T14:41:37;-2.20;99.90
18779;DHT22;9518;51.720;14.384;2022-12-11T14:44:13;-2.20;99.90
18779;DHT22;9518;51.720;14.384;2022-12-11T14:46:44;-2.20;99.90
18779;DHT22;9518;51.720;14.384;2022-12-11T14:49:18;-2.30;99.90
18779;DHT22;9518;51.720;14.384;2022-12-11T14:51:51;-2.30;99.90
18779;DHT22;9518;51.720;14.384;2022-12-11T14:54:27;-2.30;99.90
18779;DHT22;9518;51.720;14.384;2022-12-11T14:56:55;-2.30;99.90
18779;DHT22;9518;51.720;14.384;2022-12-11T14:59:24;-2.40;99.90
18779;DHT22;9518;51.720;14.384;2022-12-11T15:02:00;-2.30;99.90
18779;DHT22;9518;51.720;14.384;2022-12-11T15:04:29;-2.40;99.90
18779;DHT22;9518;51.720;14.384;2022-12-11T15:06:58;-2.30;99.90
18779;DHT22;9518;51.720;14.384;2022-12-11T15:09:28;-2.30;99.90
18779;DHT22;9518;51.720;14.384;2022-12-11T15:12:05;-2.30;99.90
18779;DHT22;9518;51.720;14.384;2022-12-11T15:14:34;-2.30;99.90
18779;DHT22;9518;51.720;14.384;2022-12-11T15:17:01;-2.30;99.90
18779;DHT22;9518;51.720;14.384;2022-12-11T15:19:30;-2.30;99.90
18779;DHT22;9518;51.720;14.384;2022-12-11T15:22:02;-2.30;99.90
18779;DHT22;9518;51.720;14.384;2022-12-11T15:24:36;-2.30;99.90
18779;DHT22;9518;51.720;14.384;2022-12-11T15:27:05;-2.30;99.90
18779;DHT22;9518;51.720;14.384;2022-12-11T15:29:34;-2.30;99.90
18779;DHT22;9518;51.720;14.384;2022-12-11T15:32:13;-2.30;99.90
18779;DHT22;9518;51.720;14.384;2022-12-11T15:34:45;-2.30;99.90
18779;DHT22;9518;51.720;14.384;2022-12-11T15:37:21;-2.30;99.90
18779;DHT22;9518;51.720;14.384;2022-12-11T15:39:49;-2.30;99.90
18779;DHT22;9518;51.720;14.384;2022-12-11T15:42:20;-2.30;99.90
18779;DHT22;9518;51.720;14.384;2022-12-11T15:44:48;-2.30;99.90
18779;DHT22;9518;51.720;14.384;2022-12-11T15:47:20;-2.30;99.90
18779;DHT22;9518;51.720;14.384;2022-12-11T15:49:47;-2.20;99.90
18779;DHT22;9518;51.720;14.384;2022-12-11T15:52:14;-2.20;99.90
18779;DHT22;9518;51.720;14.384;2022-12-11T15:54:43;-2.30;99.90